Time;durP1;ratioP1;P1;durP2;ratioP2;P2;SDS_P1;SDS_P2;PMS_P1;PMS_P2;Temp;Humidity;BMP_temperature;BMP_pressure;BME280_temperature;BME280_humidity;BME280_pressure;Samples;Min_cycle;Max_cycle;Signal;HPM_P1;HPM_P2
2022/01/31 00:00:53;;;;;;;13.00;2.80;;;;;;;;;;6009846;29;20136;-73
2022/01/31 00:03:56;;;;;;;17.55;2.60;;;;;;;;;;6007602;29;20430;-74
2022/01/31 00:07:00;;;;;;;14.25;2.58;;;;;;;;;;6008715;29;20062;-72
2022/01/31 00:10:09;;;;;;;10.18;2.15;;;;;;;;;;6009737;29;20520;-73
2022/01/31 00:13:20;;;;;;;13.80;2.65;;;;;;;;;;6009543;29;20088;-74
2022/01/31 00:16:26;;;;;;;18.98;3.63;;;;;;;;;;6006826;29;20050;-73
2022/01/31 00:19:29;;;;;;;17.83;3.27;;;;;;;;;;6007539;29;20057;-74
2022/01/31 00:22:32;;;;;;;15.07;3.05;;;;;;;;;;6008551;29;20702;-73
2022/01/31 00:25:35;;;;;;;19.40;4.28;;;;;;;;;;6007921;29;20046;-73
2022/01/31 00:28:40;;;;;;;12.57;2.47;;;;;;;;;;6006112;29;20504;-73
2022/01/31 00:31:43;;;;;;;19.65;3.05;;;;;;;;;;6001385;29;20054;-73
2022/01/31 00:34:46;;;;;;;18.15;3.17;;;;;;;;;;5987816;29;20490;-73
2022/01/31 00:37:50;;;;;;;18.83;3.05;;;;;;;;;;5985171;29;20055;-75
2022/01/31 00:40:53;;;;;;;7.18;2.60;;;;;;;;;;5985407;29;20046;-73
2022/01/31 00:44:02;;;;;;;13.32;2.65;;;;;;;;;;5985343;29;20137;-73
2022/01/31 00:47:16;;;;;;;16.60;2.67;;;;;;;;;;5989230;29;20578;-74
2022/01/31 00:50:21;;;;;;;;;;;;;;;;;;6005228;29;20060;-73
2022/01/31 00:53:24;;;;;;;14.25;2.85;;;;;;;;;;5999690;29;19982;-74
2022/01/31 00:56:27;;;;;;;18.10;2.72;;;;;;;;;;5984470;29;20050;-73
2022/01/31 00:59:32;;;;;;;16.80;2.38;;;;;;;;;;5983541;29;20054;-74
2022/01/31 01:02:35;;;;;;;13.75;2.80;;;;;;;;;;5984126;29;20065;-74
2022/01/31 01:05:41;;;;;;;;;;;;;;;;;;5986338;29;20115;-74
2022/01/31 01:08:44;;;;;;;18.20;2.95;;;;;;;;;;5983109;29;19932;-74
2022/01/31 01:11:47;;;;;;;9.70;2.60;;;;;;;;;;5984161;29;20046;-74
2022/01/31 01:14:52;;;;;;;15.13;2.60;;;;;;;;;;5984393;29;20391;-74
2022/01/31 01:17:58;;;;;;;12.40;2.33;;;;;;;;;;5985049;29;20054;-74
2022/01/31 01:21:01;;;;;;;9.93;2.60;;;;;;;;;;5983135;29;20154;-74
2022/01/31 01:24:07;;;;;;;12.43;2.50;;;;;;;;;;5984140;29;20054;-75
2022/01/31 01:27:10;;;;;;;11.88;2.97;;;;;;;;;;5981507;29;20058;-73
2022/01/31 01:30:16;;;;;;;15.52;2.65;;;;;;;;;;5982490;29;20062;-74
2022/01/31 01:33:23;;;;;;;14.32;2.65;;;;;;;;;;5981954;29;20047;-74
2022/01/31 01:36:31;;;;;;;12.32;2.60;;;;;;;;;;5983142;29;20494;-73
2022/01/31 01:39:34;;;;;;;12.10;2.97;;;;;;;;;;5982337;29;20058;-74
2022/01/31 01:42:40;;;;;;;14.05;3.03;;;;;;;;;;5982991;29;20475;-74
2022/01/31 01:45:45;;;;;;;13.43;2.72;;;;;;;;;;5983822;29;20054;-73
2022/01/31 01:48:52;;;;;;;17.10;2.78;;;;;;;;;;5983512;29;20053;-74
2022/01/31 01:51:55;;;;;;;14.05;2.80;;;;;;;;;;5982068;29;20054;-74
2022/01/31 01:55:01;;;;;;;17.27;2.88;;;;;;;;;;5982903;29;20058;-74
2022/01/31 01:58:14;;;;;;;12.80;2.40;;;;;;;;;;5983693;29;20478;-74
2022/01/31 02:01:19;;;;;;;14.10;2.50;;;;;;;;;;5982548;29;20058;-73
2022/01/31 02:04:27;;;;;;;11.45;2.65;;;;;;;;;;5981063;29;20308;-73
2022/01/31 02:07:31;;;;;;;13.73;3.08;;;;;;;;;;5980382;29;20078;-74
2022/01/31 02:10:36;;;;;;;18.25;3.08;;;;;;;;;;5980669;29;20085;-74
2022/01/31 02:13:54;;;;;;;18.05;3.40;;;;;;;;;;5979979;29;20054;-73
2022/01/31 02:17:17;;;;;;;13.68;3.63;;;;;;;;;;5981775;29;20046;-74
2022/01/31 02:20:39;;;;;;;13.57;2.80;;;;;;;;;;5982793;29;20059;-74
2022/01/31 02:23:48;;;;;;;14.30;3.17;;;;;;;;;;5984490;29;20075;-73
2022/01/31 02:27:07;;;;;;;12.20;2.53;;;;;;;;;;5983111;29;20591;-73
2022/01/31 02:30:12;;;;;;;18.45;2.58;;;;;;;;;;5982563;29;20133;-73
2022/01/31 02:33:19;;;;;;;18.88;3.45;;;;;;;;;;5982985;29;20358;-74
2022/01/31 02:36:24;;;;;;;21.35;2.75;;;;;;;;;;5983774;29;20062;-73
2022/01/31 02:39:30;;;;;;;17.70;3.28;;;;;;;;;;5981805;29;20050;-73
2022/01/31 02:42:33;;;;;;;13.60;2.70;;;;;;;;;;5982606;29;20490;-74
2022/01/31 02:45:36;;;;;;;15.00;2.78;;;;;;;;;;5984138;29;20123;-74
2022/01/31 02:48:39;;;;;;;14.13;3.50;;;;;;;;;;5981541;29;20050;-74
2022/01/31 02:51:49;;;;;;;12.57;2.85;;;;;;;;;;5982446;29;20465;-74
2022/01/31 02:54:52;;;;;;;15.07;2.53;;;;;;;;;;5982709;29;20077;-75
2022/01/31 02:57:55;;;;;;;13.00;3.47;;;;;;;;;;5981555;29;20058;-73
2022/01/31 03:00:59;;;;;;;15.45;3.20;;;;;;;;;;5981527;29;20054;-75
2022/01/31 03:04:13;;;;;;;15.45;3.22;;;;;;;;;;5981946;29;20459;-74
2022/01/31 03:07:18;;;;;;;19.80;2.85;;;;;;;;;;5982314;29;20054;-74
2022/01/31 03:10:23;;;;;;;10.75;2.53;;;;;;;;;;5981170;29;20054;-74
2022/01/31 03:13:28;;;;;;;21.17;2.65;;;;;;;;;;5982011;29;20075;-74
2022/01/31 03:16:34;;;;;;;18.02;2.75;;;;;;;;;;5982631;29;20051;-74
2022/01/31 03:19:55;;;;;;;15.10;3.10;;;;;;;;;;5980680;29;20054;-74
2022/01/31 03:23:00;;;;;;;16.42;2.60;;;;;;;;;;5980700;29;20482;-74
2022/01/31 03:26:02;;;;;;;12.68;2.22;;;;;;;;;;5981969;29;20207;-74
2022/01/31 03:29:06;;;;;;;21.05;3.03;;;;;;;;;;5982211;29;20110;-73
2022/01/31 03:32:09;;;;;;;15.05;2.20;;;;;;;;;;5981000;29;20065;-74
2022/01/31 03:35:13;;;;;;;12.38;2.60;;;;;;;;;;5981479;29;20050;-75
2022/01/31 03:38:18;;;;;;;15.30;2.50;;;;;;;;;;5980829;29;20339;-75
2022/01/31 03:41:24;;;;;;;14.65;2.63;;;;;;;;;;5980974;29;20059;-75
2022/01/31 03:44:30;;;;;;;12.45;2.80;;;;;;;;;;5980580;29;20050;-75
2022/01/31 03:47:36;;;;;;;18.02;2.95;;;;;;;;;;5981929;29;20054;-75
2022/01/31 03:50:39;;;;;;;17.98;2.53;;;;;;;;;;5981144;29;20053;-75
2022/01/31 03:53:44;;;;;;;10.90;2.50;;;;;;;;;;5977907;29;20050;-75
2022/01/31 03:56:50;;;;;;;20.60;3.38;;;;;;;;;;5978573;29;20051;-73
2022/01/31 04:00:10;;;;;;;14.90;2.38;;;;;;;;;;5978864;29;20053;-73
2022/01/31 04:03:18;;;;;;;15.43;2.80;;;;;;;;;;5980107;29;20058;-73
2022/01/31 04:06:23;;;;;;;22.02;3.08;;;;;;;;;;5980155;29;20073;-72
2022/01/31 04:09:28;;;;;;;16.25;3.05;;;;;;;;;;5982777;29;20038;-74
2022/01/31 04:12:31;;;;;;;14.40;2.60;;;;;;;;;;5983008;29;20051;-74
2022/01/31 04:15:34;;;;;;;15.43;2.88;;;;;;;;;;5985579;29;20053;-74
2022/01/31 04:18:38;;;;;;;14.82;3.22;;;;;;;;;;5986427;29;20054;-73
2022/01/31 04:21:41;;;;;;;19.40;2.63;;;;;;;;;;5986688;29;20073;-74
2022/01/31 04:24:47;;;;;;;14.15;3.05;;;;;;;;;;5985829;29;20046;-74
2022/01/31 04:28:00;;;;;;;16.75;3.00;;;;;;;;;;5985881;29;20490;-76
2022/01/31 04:31:13;;;;;;;17.95;2.88;;;;;;;;;;5986253;29;20241;-75
2022/01/31 04:34:17;;;;;;;19.90;2.55;;;;;;;;;;5986474;29;20178;-75
2022/01/31 04:37:20;;;;;;;13.50;2.72;;;;;;;;;;5985464;29;20054;-74
2022/01/31 04:40:25;;;;;;;16.60;3.03;;;;;;;;;;5986107;29;20046;-74
2022/01/31 04:43:28;;;;;;;15.15;2.45;;;;;;;;;;5986225;29;20065;-73
2022/01/31 04:46:31;;;;;;;13.00;2.28;;;;;;;;;;5985577;29;20058;-73
2022/01/31 04:49:35;;;;;;;18.25;2.75;;;;;;;;;;5985240;29;20051;-73
2022/01/31 04:52:41;;;;;;;16.60;2.75;;;;;;;;;;5985958;29;20055;-73
2022/01/31 04:55:46;;;;;;;15.65;2.63;;;;;;;;;;5986220;29;20112;-72
2022/01/31 04:58:48;;;;;;;18.77;3.47;;;;;;;;;;5985011;29;20076;-74
2022/01/31 05:01:52;;;;;;;16.80;3.70;;;;;;;;;;5985437;29;20391;-74
2022/01/31 05:04:55;;;;;;;12.40;2.15;;;;;;;;;;5985686;29;20062;-71
2022/01/31 05:07:59;;;;;;;18.13;3.17;;;;;;;;;;5984536;29;20468;-72
2022/01/31 05:11:07;;;;;;;17.70;2.95;;;;;;;;;;5985165;29;20502;-73
2022/01/31 05:14:10;;;;;;;20.98;3.13;;;;;;;;;;5985606;29;20050;-73
2022/01/31 05:17:13;;;;;;;14.98;2.53;;;;;;;;;;5985348;29;20054;-72
2022/01/31 05:20:16;;;;;;;13.77;2.80;;;;;;;;;;5984483;29;20051;-73
2022/01/31 05:23:19;;;;;;;11.68;2.78;;;;;;;;;;5985126;29;20274;-71
2022/01/31 05:26:24;;;;;;;16.10;2.85;;;;;;;;;;5984798;29;20138;-72
2022/01/31 05:29:27;;;;;;;18.15;3.63;;;;;;;;;;5984358;29;20437;-72
2022/01/31 05:32:30;;;;;;;14.23;2.63;;;;;;;;;;5984753;29;20053;-73
2022/01/31 05:35:33;;;;;;;15.13;2.65;;;;;;;;;;5985180;29;20062;-72
2022/01/31 05:38:39;;;;;;;11.63;2.33;;;;;;;;;;5984487;29;20098;-74
2022/01/31 05:41:45;;;;;;;15.27;2.80;;;;;;;;;;5984182;29;20506;-75
2022/01/31 05:44:48;;;;;;;16.92;2.95;;;;;;;;;;5985151;29;20499;-74
2022/01/31 05:47:51;;;;;;;15.02;2.60;;;;;;;;;;5984918;29;20106;-73
2022/01/31 05:50:55;;;;;;;19.10;2.70;;;;;;;;;;5983686;29;20070;-75
2022/01/31 05:53:58;;;;;;;13.43;2.72;;;;;;;;;;5984448;29;20061;-72
2022/01/31 05:57:03;;;;;;;14.35;2.70;;;;;;;;;;5984792;29;20058;-74
2022/01/31 06:00:06;;;;;;;15.50;3.40;;;;;;;;;;5984219;29;20086;-74
2022/01/31 06:03:12;;;;;;;;;;;;;;;;;;5983210;29;20052;-74
2022/01/31 06:06:17;;;;;;;18.92;4.10;;;;;;;;;;5984621;29;19932;-74
2022/01/31 06:09:22;;;;;;;18.25;3.20;;;;;;;;;;5982956;29;20058;-74
2022/01/31 06:12:27;;;;;;;16.95;2.90;;;;;;;;;;5982354;29;20038;-74
2022/01/31 06:15:30;;;;;;;15.82;3.00;;;;;;;;;;5984189;29;20046;-74
2022/01/31 06:18:35;;;;;;;20.73;2.50;;;;;;;;;;5984375;29;20077;-74
2022/01/31 06:21:39;;;;;;;18.42;3.08;;;;;;;;;;5984020;29;20051;-74
2022/01/31 06:24:42;;;;;;;16.35;3.17;;;;;;;;;;5983737;29;20506;-74
2022/01/31 06:27:58;;;;;;;20.63;3.10;;;;;;;;;;5982935;29;20060;-73
2022/01/31 06:31:01;;;;;;;20.33;4.32;;;;;;;;;;5982395;29;20046;-72
2022/01/31 06:34:07;;;;;;;;;;;;;;;;;;5983647;29;20075;-72
2022/01/31 06:37:10;;;;;;;12.90;2.60;;;;;;;;;;5983011;29;19924;-73
2022/01/31 06:40:16;;;;;;;25.38;3.65;;;;;;;;;;5984180;29;20058;-73
2022/01/31 06:43:20;;;;;;;15.43;3.58;;;;;;;;;;5981648;29;20134;-73
2022/01/31 06:46:24;;;;;;;22.92;4.15;;;;;;;;;;5983683;29;20065;-73
2022/01/31 06:49:27;;;;;;;23.27;3.88;;;;;;;;;;5983965;29;20046;-74
2022/01/31 06:52:33;;;;;;;19.65;3.55;;;;;;;;;;5981781;29;20102;-72
2022/01/31 06:55:37;;;;;;;;;;;;;;;;;;5983292;29;20152;-73
2022/01/31 06:58:41;;;;;;;18.00;3.10;;;;;;;;;;5983496;29;19924;-73
2022/01/31 07:01:44;;;;;;;17.02;3.40;;;;;;;;;;5983369;29;20054;-74
2022/01/31 07:04:50;;;;;;;15.40;3.67;;;;;;;;;;5982877;29;20129;-72
2022/01/31 07:07:53;;;;;;;12.50;2.83;;;;;;;;;;5981688;29;20600;-73
2022/01/31 07:10:56;;;;;;;17.50;4.15;;;;;;;;;;5982361;29;20560;-74
2022/01/31 07:14:06;;;;;;;14.05;3.28;;;;;;;;;;5982698;29;20046;-74
2022/01/31 07:17:09;;;;;;;20.15;2.97;;;;;;;;;;5982799;29;20061;-75
2022/01/31 07:20:22;;;;;;;16.98;4.10;;;;;;;;;;5983495;29;20050;-73
2022/01/31 07:23:27;;;;;;;13.50;2.60;;;;;;;;;;5982085;29;20430;-75
2022/01/31 07:26:30;;;;;;;14.77;2.90;;;;;;;;;;5982255;29;20129;-74
2022/01/31 07:29:35;;;;;;;19.40;3.03;;;;;;;;;;5982815;29;20090;-74
2022/01/31 07:32:41;;;;;;;20.00;3.28;;;;;;;;;;5983342;29;20046;-73
2022/01/31 07:35:47;;;;;;;16.20;3.30;;;;;;;;;;5982790;29;20062;-72
2022/01/31 07:38:50;;;;;;;19.42;3.58;;;;;;;;;;5981324;29;20058;-73
2022/01/31 07:41:53;;;;;;;32.85;9.55;;;;;;;;;;5981738;29;20054;-74
2022/01/31 07:45:00;;;;;;;24.90;3.58;;;;;;;;;;5981605;29;20473;-74
2022/01/31 07:48:13;;;;;;;18.35;3.58;;;;;;;;;;5981822;29;20062;-74
2022/01/31 07:51:19;;;;;;;18.88;3.00;;;;;;;;;;5986767;29;20054;-74
2022/01/31 07:54:22;;;;;;;13.65;2.75;;;;;;;;;;5985842;29;20053;-76
2022/01/31 07:57:25;;;;;;;14.90;3.28;;;;;;;;;;5985002;29;20191;-75
2022/01/31 08:00:38;;;;;;;14.52;2.80;;;;;;;;;;5985332;29;20529;-75
2022/01/31 08:03:45;;;;;;;16.83;2.97;;;;;;;;;;5983343;29;20508;-77
2022/01/31 08:06:50;;;;;;;15.52;3.10;;;;;;;;;;5983193;29;20505;-75
2022/01/31 08:09:55;;;;;;;12.52;3.20;;;;;;;;;;5984755;29;20191;-77
2022/01/31 08:13:01;;;;;;;17.58;3.53;;;;;;;;;;5985069;29;20061;-77
2022/01/31 08:19:24;;;;;;;16.25;3.20;;;;;;;;;;5980164;29;20050;-77
2022/01/31 08:22:43;;;;;;;17.77;4.43;;;;;;;;;;5979968;29;20062;-75
2022/01/31 08:25:50;;;;;;;15.82;3.00;;;;;;;;;;5980638;29;20054;-76
2022/01/31 08:28:58;;;;;;;18.67;3.67;;;;;;;;;;5980821;29;20058;-78
2022/01/31 08:32:18;;;;;;;26.95;5.00;;;;;;;;;;5979690;29;20042;-77
2022/01/31 08:38:42;;;;;;;11.98;3.17;;;;;;;;;;5984256;29;20054;-74
2022/01/31 08:41:48;;;;;;;10.88;2.58;;;;;;;;;;5984874;29;20486;-76
2022/01/31 08:44:51;;;;;;;15.68;3.05;;;;;;;;;;5983758;29;20106;-78
2022/01/31 08:47:59;;;;;;;20.90;7.82;;;;;;;;;;5984278;29;20081;-77
2022/01/31 08:51:04;;;;;;;14.90;4.38;;;;;;;;;;5985938;29;20058;-76
2022/01/31 08:54:07;;;;;;;15.60;2.90;;;;;;;;;;5985240;29;20050;-76
2022/01/31 08:57:10;;;;;;;19.20;5.13;;;;;;;;;;5983974;29;20070;-76
2022/01/31 09:00:14;;;;;;;20.17;4.00;;;;;;;;;;5983022;29;20061;-76
2022/01/31 09:03:34;;;;;;;17.65;2.70;;;;;;;;;;5985487;29;20046;-76
2022/01/31 09:06:38;;;;;;;19.25;2.97;;;;;;;;;;5983224;29;20139;-78
2022/01/31 09:09:43;;;;;;;19.20;2.88;;;;;;;;;;5969157;29;20137;-76
2022/01/31 09:12:47;;;;;;;20.77;3.40;;;;;;;;;;5983148;29;20054;-76
2022/01/31 09:15:50;;;;;;;23.00;4.03;;;;;;;;;;5981797;29;20187;-76
2022/01/31 09:18:55;;;;;;;22.05;3.55;;;;;;;;;;5983645;29;20711;-78
2022/01/31 09:21:59;;;;;;;15.30;3.23;;;;;;;;;;5984136;29;20054;-78
2022/01/31 09:25:02;;;;;;;17.23;3.63;;;;;;;;;;5982745;29;20115;-77
2022/01/31 09:28:06;;;;;;;19.67;4.03;;;;;;;;;;5981675;29;20062;-77
2022/01/31 09:31:11;;;;;;;19.15;3.53;;;;;;;;;;5982427;29;20055;-78
2022/01/31 09:34:19;;;;;;;12.45;2.83;;;;;;;;;;5982460;29;20078;-76
2022/01/31 09:37:26;;;;;;;13.98;3.33;;;;;;;;;;5981600;29;20538;-79
2022/01/31 09:40:30;;;;;;;14.98;3.05;;;;;;;;;;5981743;29;20482;-76
2022/01/31 09:44:01;;;;;;;18.33;3.80;;;;;;;;;;5984575;29;20188;-76
2022/01/31 09:47:19;;;;;;;16.85;3.28;;;;;;;;;;5983732;29;20111;-76
2022/01/31 09:50:25;;;;;;;21.73;3.97;;;;;;;;;;5984542;29;20055;-74
2022/01/31 09:53:28;;;;;;;18.23;3.85;;;;;;;;;;5983218;29;20058;-75
2022/01/31 09:56:33;;;;;;;18.52;3.67;;;;;;;;;;5983456;29;20053;-75
2022/01/31 09:59:37;;;;;;;15.30;4.07;;;;;;;;;;5967837;29;20062;-75
2022/01/31 10:02:40;;;;;;;15.57;3.42;;;;;;;;;;5982693;29;20054;-75
2022/01/31 10:05:46;;;;;;;14.20;4.25;;;;;;;;;;5982774;29;20050;-76
2022/01/31 10:08:49;;;;;;;18.25;4.35;;;;;;;;;;5968472;29;20619;-76
2022/01/31 10:11:55;;;;;;;20.13;4.55;;;;;;;;;;5982153;29;20057;-76
2022/01/31 10:18:19;;;;;;;14.98;3.38;;;;;;;;;;5983105;29;20050;-75
2022/01/31 10:22:09;;;;;;;12.52;3.35;;;;;;;;;;5984348;29;20061;-75
2022/01/31 10:25:16;;;;;;;16.27;3.70;;;;;;;;;;5940661;29;20479;-75
2022/01/31 10:28:40;;;;;;;19.52;3.67;;;;;;;;;;5983553;29;20498;-75
2022/01/31 10:32:01;;;;;;;12.97;3.23;;;;;;;;;;5984051;29;20418;-75
2022/01/31 10:35:06;;;;;;;21.33;4.30;;;;;;;;;;5983568;29;20357;-75
2022/01/31 10:38:12;;;;;;;16.88;4.75;;;;;;;;;;5983260;29;20484;-76
2022/01/31 10:45:10;;;;;;;16.08;4.18;;;;;;;;;;5983539;29;20414;-76
2022/01/31 10:51:58;;;;;;;15.00;2.88;;;;;;;;;;5982022;29;20130;-76
2022/01/31 10:55:19;;;;;;;16.63;3.80;;;;;;;;;;5983013;29;20058;-77
2022/01/31 10:58:24;;;;;;;15.57;2.67;;;;;;;;;;5981829;29;20418;-76
2022/01/31 11:01:30;;;;;;;15.20;3.50;;;;;;;;;;5982345;29;20058;-77
2022/01/31 11:04:56;;;;;;;18.35;4.22;;;;;;;;;;5982353;29;20274;-75
2022/01/31 11:08:15;;;;;;;21.08;4.45;;;;;;;;;;5981098;29;20062;-77
2022/01/31 11:11:20;;;;;;;16.73;3.08;;;;;;;;;;5982248;29;20050;-76
2022/01/31 11:14:26;;;;;;;16.85;3.47;;;;;;;;;;5982299;29;20182;-76
2022/01/31 11:17:29;;;;;;;;;;;;;;;;;;5982194;29;20054;-76
2022/01/31 11:20:32;;;;;;;9.30;2.63;;;;;;;;;;5981628;29;20435;-76
2022/01/31 11:23:38;;;;;;;16.23;3.35;;;;;;;;;;5983263;29;20050;-76
2022/01/31 11:26:42;;;;;;;11.85;2.90;;;;;;;;;;5986409;29;20141;-75
2022/01/31 11:29:48;;;;;;;15.68;3.30;;;;;;;;;;5985602;29;20046;-76
2022/01/31 11:32:51;;;;;;;23.15;3.67;;;;;;;;;;5985834;29;20133;-75
2022/01/31 11:35:55;;;;;;;13.65;2.67;;;;;;;;;;5986349;29;20076;-76
2022/01/31 11:39:00;;;;;;;14.27;2.65;;;;;;;;;;5985437;29;20489;-75
2022/01/31 11:42:05;;;;;;;15.52;3.17;;;;;;;;;;5987039;29;20256;-75
2022/01/31 11:45:13;;;;;;;16.35;3.60;;;;;;;;;;5987119;29;20468;-75
2022/01/31 11:48:19;;;;;;;14.63;3.45;;;;;;;;;;5986952;29;20050;-75
2022/01/31 11:51:24;;;;;;;12.38;2.55;;;;;;;;;;5986545;29;20441;-76
2022/01/31 11:54:28;;;;;;;13.88;2.50;;;;;;;;;;5986839;29;20058;-75
2022/01/31 11:57:32;;;;;;;13.32;2.88;;;;;;;;;;5985723;29;20071;-75
2022/01/31 12:00:39;;;;;;;14.82;3.03;;;;;;;;;;5986012;29;20467;-75
2022/01/31 12:03:55;;;;;;;12.48;2.65;;;;;;;;;;5986472;29;20106;-76
2022/01/31 12:07:25;;;;;;;14.55;3.17;;;;;;;;;;5986636;29;20062;-75
2022/01/31 12:10:34;;;;;;;13.77;3.58;;;;;;;;;;5986778;29;20057;-75
2022/01/31 12:13:41;;;;;;;14.13;4.13;;;;;;;;;;5985974;29;20231;-76
2022/01/31 12:16:50;;;;;;;28.38;9.32;;;;;;;;;;5986382;29;20056;-75
2022/01/31 12:20:03;;;;;;;13.07;3.30;;;;;;;;;;5985103;29;20414;-75
2022/01/31 12:23:21;;;;;;;16.48;3.33;;;;;;;;;;5984828;29;20558;-76
2022/01/31 12:26:52;;;;;;;13.60;2.97;;;;;;;;;;5985544;29;20050;-76
2022/01/31 12:29:57;;;;;;;11.75;3.35;;;;;;;;;;5984523;29;20133;-78
2022/01/31 12:33:02;;;;;;;15.15;4.10;;;;;;;;;;5984696;29;20046;-75
2022/01/31 12:36:08;;;;;;;13.52;3.10;;;;;;;;;;5986125;29;20314;-76
2022/01/31 12:39:26;;;;;;;16.38;3.95;;;;;;;;;;5984176;29;20061;-76
2022/01/31 12:42:43;;;;;;;17.92;3.30;;;;;;;;;;5985517;29;20132;-76
2022/01/31 12:46:04;;;;;;;10.88;3.15;;;;;;;;;;5984763;29;20491;-75
2022/01/31 12:49:11;;;;;;;30.60;5.45;;;;;;;;;;5985995;29;20402;-75
2022/01/31 12:52:20;;;;;;;17.35;5.00;;;;;;;;;;5984352;29;20062;-75
2022/01/31 12:55:27;;;;;;;17.23;3.17;;;;;;;;;;5984640;29;20110;-76
2022/01/31 12:58:35;;;;;;;18.55;3.45;;;;;;;;;;5985787;29;20050;-75
2022/01/31 13:01:40;;;;;;;14.30;3.67;;;;;;;;;;5985618;29;20175;-75
2022/01/31 13:04:48;;;;;;;17.40;3.30;;;;;;;;;;5984028;29;20046;-75
2022/01/31 13:07:52;;;;;;;18.52;3.08;;;;;;;;;;5983832;29;20093;-75
2022/01/31 13:10:55;;;;;;;14.48;3.28;;;;;;;;;;5984130;29;20505;-75
2022/01/31 13:14:02;;;;;;;13.55;2.88;;;;;;;;;;5984819;29;20062;-76
2022/01/31 13:17:08;;;;;;;14.48;3.40;;;;;;;;;;5985011;29;20410;-75
2022/01/31 13:20:13;;;;;;;14.07;3.00;;;;;;;;;;5982810;29;20073;-76
2022/01/31 13:23:37;;;;;;;16.67;3.33;;;;;;;;;;5983757;29;20042;-76
2022/01/31 13:26:51;;;;;;;10.82;3.15;;;;;;;;;;5982581;29;20047;-76
2022/01/31 13:29:56;;;;;;;;;;;;;;;;;;5982704;29;20058;-76
2022/01/31 13:33:02;;;;;;;10.88;2.80;;;;;;;;;;5984781;29;19925;-76
2022/01/31 13:36:07;;;;;;;12.60;3.45;;;;;;;;;;5980884;29;20103;-76
2022/01/31 13:39:21;;;;;;;9.43;2.65;;;;;;;;;;5980871;29;20066;-76
2022/01/31 13:42:33;;;;;;;18.63;3.40;;;;;;;;;;5980831;29;20058;-76
2022/01/31 13:45:40;;;;;;;16.40;4.22;;;;;;;;;;5980343;29;20195;-76
2022/01/31 13:48:51;;;;;;;12.63;3.33;;;;;;;;;;5981065;29;20051;-76
2022/01/31 13:51:56;;;;;;;13.05;4.10;;;;;;;;;;5984540;29;20102;-76
2022/01/31 13:55:00;;;;;;;12.87;3.47;;;;;;;;;;5983561;29;20049;-75
2022/01/31 13:58:03;;;;;;;12.48;3.97;;;;;;;;;;5982676;29;20114;-75
2022/01/31 14:01:07;;;;;;;11.32;3.00;;;;;;;;;;5982952;29;20059;-76
2022/01/31 14:04:11;;;;;;;14.68;3.20;;;;;;;;;;5984424;29;20141;-76
2022/01/31 14:07:26;;;;;;;13.98;3.00;;;;;;;;;;5982908;29;20054;-74
2022/01/31 14:10:31;;;;;;;14.70;3.72;;;;;;;;;;5982522;29;20827;-76
2022/01/31 14:13:36;;;;;;;16.73;3.80;;;;;;;;;;5983162;29;20065;-76
2022/01/31 14:16:40;;;;;;;11.20;3.55;;;;;;;;;;5983002;29;20436;-76
2022/01/31 14:19:44;;;;;;;16.58;3.60;;;;;;;;;;5982437;29;20053;-75
2022/01/31 14:22:56;;;;;;;14.07;3.22;;;;;;;;;;5982697;29;20460;-75
2022/01/31 14:26:02;;;;;;;16.77;4.20;;;;;;;;;;5984008;29;20057;-74
2022/01/31 14:29:06;;;;;;;16.73;3.58;;;;;;;;;;5982687;29;20054;-75
2022/01/31 14:32:11;;;;;;;16.70;3.88;;;;;;;;;;5983377;29;20050;-75
2022/01/31 14:35:16;;;;;;;11.25;2.95;;;;;;;;;;5983767;29;20058;-76
2022/01/31 14:38:23;;;;;;;16.92;3.65;;;;;;;;;;5982533;29;20054;-77
2022/01/31 14:41:49;;;;;;;9.73;2.72;;;;;;;;;;5981961;29;20498;-75
2022/01/31 14:48:24;;;;;;;13.57;2.92;;;;;;;;;;5971531;29;20058;-74
2022/01/31 14:51:28;;;;;;;9.27;2.78;;;;;;;;;;5982375;29;20047;-74
2022/01/31 14:54:35;;;;;;;10.50;3.00;;;;;;;;;;5981566;29;20126;-74
2022/01/31 14:57:39;;;;;;;11.82;2.75;;;;;;;;;;5981149;29;20463;-75
2022/01/31 15:00:45;;;;;;;18.38;3.25;;;;;;;;;;5982045;29;20050;-76
2022/01/31 15:03:51;;;;;;;15.82;4.00;;;;;;;;;;5983454;29;20050;-76
2022/01/31 15:06:56;;;;;;;12.40;2.92;;;;;;;;;;5981202;29;20085;-75
2022/01/31 15:10:04;;;;;;;12.73;3.30;;;;;;;;;;5981766;29;20054;-74
2022/01/31 15:13:07;;;;;;;15.07;3.40;;;;;;;;;;5982300;29;20046;-74
2022/01/31 15:16:16;;;;;;;10.88;3.20;;;;;;;;;;5982751;29;20055;-74
2022/01/31 15:19:22;;;;;;;14.57;3.47;;;;;;;;;;5982959;29;20133;-74
2022/01/31 15:22:27;;;;;;;11.88;2.80;;;;;;;;;;5981626;29;20058;-74
2022/01/31 15:25:33;;;;;;;17.42;3.88;;;;;;;;;;5983234;29;20135;-77
2022/01/31 15:28:40;;;;;;;19.38;3.90;;;;;;;;;;5982543;29;20081;-77
2022/01/31 15:31:44;;;;;;;9.55;2.70;;;;;;;;;;5984063;29;20061;-78
2022/01/31 15:34:51;;;;;;;14.68;3.00;;;;;;;;;;5982763;29;20062;-76
2022/01/31 15:37:56;;;;;;;;;;;;;;;;;;5982111;29;20134;-77
2022/01/31 15:41:01;;;;;;;9.35;2.40;;;;;;;;;;5981939;29;20372;-76
2022/01/31 15:44:13;;;;;;;10.80;2.70;;;;;;;;;;5981595;29;20070;-76
2022/01/31 15:47:21;;;;;;;10.32;3.58;;;;;;;;;;5981445;29;20055;-75
2022/01/31 15:50:24;;;;;;;12.10;2.78;;;;;;;;;;5981865;29;20642;-76
2022/01/31 15:53:32;;;;;;;12.35;2.63;;;;;;;;;;5982731;29;20129;-76
2022/01/31 15:56:37;;;;;;;12.38;3.28;;;;;;;;;;5981666;29;20545;-77
2022/01/31 15:59:40;;;;;;;17.48;2.88;;;;;;;;;;5981159;29;20151;-75
2022/01/31 16:02:47;;;;;;;10.30;2.88;;;;;;;;;;5982426;29;20099;-76
2022/01/31 16:05:50;;;;;;;14.30;3.33;;;;;;;;;;5982294;29;20050;-73
2022/01/31 16:08:54;;;;;;;13.43;3.88;;;;;;;;;;5983064;29;20054;-74
2022/01/31 16:12:04;;;;;;;12.95;3.10;;;;;;;;;;5970355;29;20051;-75
2022/01/31 16:15:27;;;;;;;10.13;2.95;;;;;;;;;;5984444;29;20108;-77
2022/01/31 16:18:31;;;;;;;14.52;3.28;;;;;;;;;;5986422;29;20062;-76
2022/01/31 16:21:34;;;;;;;10.77;3.13;;;;;;;;;;5984584;29;20053;-76
2022/01/31 16:24:40;;;;;;;;;;;;;;;;;;5984735;29;20061;-76
2022/01/31 16:27:46;;;;;;;14.15;3.20;;;;;;;;;;5985791;29;20011;-73
2022/01/31 16:30:51;;;;;;;15.02;3.13;;;;;;;;;;5985995;29;20054;-76
2022/01/31 16:33:55;;;;;;;17.75;3.20;;;;;;;;;;5984900;29;20058;-76
2022/01/31 16:36:59;;;;;;;12.32;3.13;;;;;;;;;;5984422;29;20057;-76
2022/01/31 16:40:02;;;;;;;16.48;3.40;;;;;;;;;;5986141;29;20053;-75
2022/01/31 16:43:10;;;;;;;14.55;3.55;;;;;;;;;;5983263;29;20080;-76
2022/01/31 16:46:13;;;;;;;15.45;3.10;;;;;;;;;;5983362;29;20046;-76
2022/01/31 16:49:17;;;;;;;12.40;3.03;;;;;;;;;;5985110;29;20050;-76
2022/01/31 16:52:20;;;;;;;15.82;3.53;;;;;;;;;;5982864;29;20070;-74
2022/01/31 16:55:26;;;;;;;10.07;3.47;;;;;;;;;;5984046;29;20043;-76
2022/01/31 16:58:33;;;;;;;13.07;3.13;;;;;;;;;;5984139;29;20043;-75
2022/01/31 17:01:37;;;;;;;18.85;3.63;;;;;;;;;;5985883;29;20061;-75
2022/01/31 17:04:40;;;;;;;51.58;20.10;;;;;;;;;;5984862;29;20343;-75
2022/01/31 17:07:44;;;;;;;13.13;4.03;;;;;;;;;;5984571;29;20054;-75
2022/01/31 17:10:47;;;;;;;13.55;4.40;;;;;;;;;;5983781;29;20419;-72
2022/01/31 17:13:53;;;;;;;11.65;3.95;;;;;;;;;;5983482;29;20053;-75
2022/01/31 17:16:59;;;;;;;14.63;3.45;;;;;;;;;;5983470;29;20046;-74
2022/01/31 17:20:03;;;;;;;19.95;4.40;;;;;;;;;;5983410;29;20513;-74
2022/01/31 17:23:06;;;;;;;12.48;3.50;;;;;;;;;;5983146;29;20110;-74
2022/01/31 17:26:09;;;;;;;17.08;3.97;;;;;;;;;;5982835;29;20081;-73
2022/01/31 17:29:14;;;;;;;11.30;3.15;;;;;;;;;;5983332;29;20057;-73
2022/01/31 17:32:17;;;;;;;9.82;3.60;;;;;;;;;;5984806;29;20498;-73
2022/01/31 17:35:20;;;;;;;15.82;3.83;;;;;;;;;;5983226;29;20050;-73
2022/01/31 17:38:24;;;;;;;17.00;3.90;;;;;;;;;;5983444;29;20058;-75
2022/01/31 17:41:28;;;;;;;14.80;3.55;;;;;;;;;;5983379;29;20167;-74
2022/01/31 17:44:34;;;;;;;18.63;4.13;;;;;;;;;;5984173;29;20103;-74
2022/01/31 17:47:39;;;;;;;13.77;4.07;;;;;;;;;;5983985;29;20057;-74
2022/01/31 17:50:43;;;;;;;19.25;5.55;;;;;;;;;;5982516;29;20050;-74
2022/01/31 17:53:46;;;;;;;14.82;3.63;;;;;;;;;;5984746;29;20194;-75
2022/01/31 17:56:52;;;;;;;18.67;4.22;;;;;;;;;;5984070;29;20157;-74
2022/01/31 18:00:00;;;;;;;18.92;5.38;;;;;;;;;;5983039;29;20061;-75
2022/01/31 18:03:06;;;;;;;15.35;4.22;;;;;;;;;;5983207;29;20054;-75
2022/01/31 18:06:09;;;;;;;21.40;4.75;;;;;;;;;;5981998;29;20142;-75
2022/01/31 18:09:13;;;;;;;14.32;4.18;;;;;;;;;;5983984;29;20058;-75
2022/01/31 18:12:16;;;;;;;18.50;4.90;;;;;;;;;;5983782;29;20414;-75
2022/01/31 18:15:21;;;;;;;18.23;4.60;;;;;;;;;;5984544;29;20068;-75
2022/01/31 18:18:24;;;;;;;13.63;4.78;;;;;;;;;;5983286;29;20050;-74
2022/01/31 18:21:31;;;;;;;20.02;6.22;;;;;;;;;;5982645;29;20458;-74
2022/01/31 18:24:34;;;;;;;18.75;3.97;;;;;;;;;;5982693;29;20451;-78
2022/01/31 18:27:37;;;;;;;16.85;4.22;;;;;;;;;;5982135;29;20054;-74
2022/01/31 18:30:42;;;;;;;17.75;4.57;;;;;;;;;;5983635;29;20549;-74
2022/01/31 18:33:50;;;;;;;13.02;4.30;;;;;;;;;;5983392;29;20046;-73
2022/01/31 18:36:53;;;;;;;13.47;3.83;;;;;;;;;;5983908;29;20062;-76
2022/01/31 18:39:59;;;;;;;29.45;5.00;;;;;;;;;;5983434;29;20313;-74
2022/01/31 18:43:03;;;;;;;24.95;6.78;;;;;;;;;;5983743;29;20132;-74
2022/01/31 18:46:07;;;;;;;19.65;4.15;;;;;;;;;;5982471;29;20061;-74